Time;durP1;ratioP1;P1;durP2;ratioP2;P2;SDS_P1;SDS_P2;PMS_P1;PMS_P2;Temp;Humidity;BMP_temperature;BMP_pressure;BME280_temperature;BME280_humidity;BME280_pressure;Samples;Min_cycle;Max_cycle;Signal;HPM_P1;HPM_P2
2022/09/15 00:01:43;;;;;;;4.53;1.30;;;;;;;;;;4998679;28;20250;-72
2022/09/15 00:04:10;;;;;;;5.27;1.37;;;;;;;;;;5010762;28;20234;-72
2022/09/15 00:06:37;;;;;;;4.67;1.30;;;;;;;;;;5010855;28;20191;-72
2022/09/15 00:09:04;;;;;;;4.13;1.30;;;;;;;;;;5011173;28;20203;-72
2022/09/15 00:11:32;;;;;;;6.70;1.50;;;;;;;;;;4992737;28;20192;-72
2022/09/15 00:13:59;;;;;;;3.77;1.30;;;;;;;;;;4993899;28;20242;-72
2022/09/15 00:16:26;;;;;;;3.20;1.33;;;;;;;;;;4993438;28;20216;-73
2022/09/15 00:18:53;;;;;;;3.87;1.23;;;;;;;;;;5010838;28;20683;-73
2022/09/15 00:21:20;;;;;;;4.07;1.20;;;;;;;;;;4993070;28;20196;-72
2022/09/15 00:23:48;;;;;;;2.87;1.27;;;;;;;;;;4993390;28;20188;-72
2022/09/15 00:26:15;;;;;;;6.17;1.70;;;;;;;;;;4993493;28;20208;-72
2022/09/15 00:29:00;;;;;;;3.17;1.50;;;;;;;;;;4995576;28;20266;-72
2022/09/15 00:31:27;;;;;;;4.60;1.60;;;;;;;;;;4993252;28;20755;-72
2022/09/15 00:33:54;;;;;;;5.23;1.70;;;;;;;;;;5010351;28;20199;-72
2022/09/15 00:36:21;;;;;;;3.47;1.40;;;;;;;;;;4992803;28;20243;-72
2022/09/15 00:38:48;;;;;;;4.23;1.57;;;;;;;;;;4993077;28;20199;-72
2022/09/15 00:41:15;;;;;;;3.53;1.60;;;;;;;;;;4977182;28;20211;-72
2022/09/15 00:43:48;;;;;;;4.10;1.50;;;;;;;;;;4996437;28;20197;-72
2022/09/15 00:46:15;;;;;;;4.57;1.40;;;;;;;;;;5009930;28;20710;-72
2022/09/15 00:49:03;;;;;;;5.13;1.43;;;;;;;;;;5010073;28;20595;-72
2022/09/15 00:51:38;;;;;;;4.47;1.60;;;;;;;;;;4975449;28;20192;-72
2022/09/15 00:54:07;;;;;;;3.87;1.70;;;;;;;;;;4992779;28;20253;-72
2022/09/15 00:56:33;;;;;;;4.07;1.80;;;;;;;;;;4992627;28;20195;-72
2022/09/15 00:59:01;;;;;;;2.73;1.30;;;;;;;;;;4993008;28;20246;-72
2022/09/15 01:01:29;;;;;;;6.63;1.67;;;;;;;;;;4978614;28;20642;-72
2022/09/15 01:03:56;;;;;;;5.57;1.83;;;;;;;;;;4995833;28;20292;-73
2022/09/15 01:06:25;;;;;;;3.83;1.77;;;;;;;;;;4979919;28;20213;-72
2022/09/15 01:09:07;;;;;;;4.90;1.83;;;;;;;;;;4990332;28;20197;-72
2022/09/15 01:11:34;;;;;;;5.57;1.53;;;;;;;;;;5008108;28;20953;-72
2022/09/15 01:14:01;;;;;;;4.47;1.57;;;;;;;;;;5010424;28;20207;-72
2022/09/15 01:16:27;;;;;;;7.70;1.80;;;;;;;;;;5009805;28;20216;-72
2022/09/15 01:19:12;;;;;;;5.17;1.60;;;;;;;;;;5000265;28;20279;-72
2022/09/15 01:21:42;;;;;;;3.97;1.70;;;;;;;;;;5007003;28;20204;-72
2022/09/15 01:24:27;;;;;;;5.43;1.50;;;;;;;;;;5009840;28;20196;-72
2022/09/15 01:27:13;;;;;;;2.93;1.43;;;;;;;;;;5009597;28;20191;-72
2022/09/15 01:29:59;;;;;;;4.53;1.80;;;;;;;;;;5009365;28;20221;-72
2022/09/15 01:35:32;;;;;;;4.87;1.70;;;;;;;;;;4996662;28;20176;-72
2022/09/15 01:38:10;;;;;;;5.77;1.60;;;;;;;;;;5009580;28;20769;-72
2022/09/15 01:41:00;;;;;;;4.20;1.60;;;;;;;;;;5009755;28;20259;-72
2022/09/15 01:43:28;;;;;;;5.20;1.53;;;;;;;;;;5009378;28;20215;-72
2022/09/15 01:45:55;;;;;;;6.07;1.60;;;;;;;;;;4991902;28;20220;-72
2022/09/15 01:48:23;;;;;;;4.93;1.40;;;;;;;;;;5009119;28;20196;-72
2022/09/15 01:50:51;;;;;;;6.33;1.60;;;;;;;;;;5007026;28;20184;-73
2022/09/15 01:53:35;;;;;;;4.87;1.90;;;;;;;;;;4994327;28;20180;-72
2022/09/15 01:56:04;;;;;;;3.43;1.63;;;;;;;;;;5009907;28;20192;-72
2022/09/15 01:58:31;;;;;;;7.50;1.90;;;;;;;;;;4992150;28;20670;-72
2022/09/15 02:01:10;;;;;;;5.10;1.87;;;;;;;;;;4991583;28;20188;-72
2022/09/15 02:03:43;;;;;;;4.00;1.80;;;;;;;;;;5009130;28;20279;-72
2022/09/15 02:06:15;;;;;;;5.43;1.70;;;;;;;;;;4990882;28;20228;-72
2022/09/15 02:08:51;;;;;;;5.77;2.53;;;;;;;;;;4991977;28;20199;-72
2022/09/15 02:11:18;;;;;;;4.13;1.80;;;;;;;;;;4991828;28;20195;-72
2022/09/15 02:13:47;;;;;;;6.83;2.43;;;;;;;;;;5011577;28;20720;-72
2022/09/15 02:16:18;;;;;;;6.17;2.23;;;;;;;;;;5013102;28;20206;-72
2022/09/15 02:18:47;;;;;;;5.20;2.30;;;;;;;;;;5012980;28;20251;-72
2022/09/15 02:21:17;;;;;;;5.60;1.90;;;;;;;;;;4981850;28;20200;-72
2022/09/15 02:23:46;;;;;;;5.33;1.90;;;;;;;;;;4995465;28;20215;-72
2022/09/15 02:26:14;;;;;;;7.50;1.80;;;;;;;;;;5013187;28;20216;-72
2022/09/15 02:28:41;;;;;;;5.83;2.07;;;;;;;;;;4995362;28;20663;-73
2022/09/15 02:31:09;;;;;;;7.17;2.50;;;;;;;;;;4995709;28;20262;-72
2022/09/15 02:33:36;;;;;;;5.10;2.00;;;;;;;;;;4995358;28;20231;-73
2022/09/15 02:36:03;;;;;;;8.80;2.33;;;;;;;;;;4995303;28;20246;-72
2022/09/15 02:38:33;;;;;;;6.53;2.27;;;;;;;;;;4995136;28;20295;-72
2022/09/15 02:41:00;;;;;;;8.63;2.40;;;;;;;;;;4979406;28;20312;-72
2022/09/15 02:43:26;;;;;;;5.70;2.30;;;;;;;;;;4993750;28;20716;-72
2022/09/15 02:45:53;;;;;;;6.47;2.47;;;;;;;;;;4993042;28;20310;-72
2022/09/15 02:48:20;;;;;;;4.90;2.10;;;;;;;;;;4992457;28;20200;-72
2022/09/15 02:50:47;;;;;;;7.70;2.17;;;;;;;;;;4999926;28;20193;-72
2022/09/15 02:53:14;;;;;;;7.30;2.50;;;;;;;;;;4992850;28;20200;-72
2022/09/15 02:55:40;;;;;;;9.20;2.83;;;;;;;;;;4992681;28;20192;-72
2022/09/15 02:58:07;;;;;;;5.07;2.53;;;;;;;;;;4992821;28;20656;-72
2022/09/15 03:00:34;;;;;;;7.27;2.27;;;;;;;;;;5002638;28;20220;-72
2022/09/15 03:03:00;;;;;;;7.90;2.47;;;;;;;;;;4992455;28;20196;-71
2022/09/15 03:05:28;;;;;;;5.13;2.50;;;;;;;;;;4995322;28;20216;-71
2022/09/15 03:07:55;;;;;;;6.37;2.07;;;;;;;;;;4983246;28;20266;-72
2022/09/15 03:10:22;;;;;;;6.73;2.50;;;;;;;;;;4983962;28;20224;-74
2022/09/15 03:12:50;;;;;;;6.80;2.23;;;;;;;;;;5002122;28;20196;-72
2022/09/15 03:15:18;;;;;;;6.83;1.97;;;;;;;;;;5002736;28;20211;-74
2022/09/15 03:17:45;;;;;;;6.07;2.07;;;;;;;;;;5003458;28;21397;-74
2022/09/15 03:20:17;;;;;;;6.00;2.33;;;;;;;;;;5003273;28;20552;-71
2022/09/15 03:22:44;;;;;;;6.07;2.10;;;;;;;;;;5001949;28;20753;-71
2022/09/15 03:25:12;;;;;;;6.80;2.00;;;;;;;;;;5000392;28;20220;-71
2022/09/15 03:27:39;;;;;;;6.63;2.13;;;;;;;;;;4985957;28;20207;-72
2022/09/15 03:30:06;;;;;;;8.93;2.43;;;;;;;;;;5003758;28;20311;-71
2022/09/15 03:32:33;;;;;;;5.07;2.40;;;;;;;;;;5003678;28;20188;-71
2022/09/15 03:35:00;;;;;;;6.67;2.67;;;;;;;;;;5001844;28;20691;-71
2022/09/15 03:37:27;;;;;;;9.70;3.13;;;;;;;;;;4986775;28;21031;-72
2022/09/15 03:39:54;;;;;;;10.53;2.90;;;;;;;;;;5001401;28;20212;-71
2022/09/15 03:42:21;;;;;;;8.43;3.13;;;;;;;;;;5001355;28;20210;-70
2022/09/15 03:44:48;;;;;;;7.00;3.43;;;;;;;;;;5001993;28;20276;-72
2022/09/15 03:47:15;;;;;;;7.10;3.43;;;;;;;;;;5000839;28;20181;-74
2022/09/15 03:49:41;;;;;;;10.53;3.60;;;;;;;;;;4984525;28;20192;-71
2022/09/15 03:52:08;;;;;;;8.70;3.17;;;;;;;;;;4998020;28;20204;-72
2022/09/15 03:54:35;;;;;;;5.90;2.53;;;;;;;;;;5001390;28;20200;-71
2022/09/15 03:57:02;;;;;;;7.77;2.43;;;;;;;;;;5001948;28;20200;-70
2022/09/15 03:59:29;;;;;;;6.63;2.67;;;;;;;;;;5001663;28;20192;-70
2022/09/15 04:01:55;;;;;;;7.47;2.60;;;;;;;;;;4999934;28;20200;-70
2022/09/15 04:04:23;;;;;;;8.17;2.97;;;;;;;;;;5001017;28;20196;-70
2022/09/15 04:06:49;;;;;;;9.67;2.50;;;;;;;;;;5001598;28;20271;-70
2022/09/15 04:09:16;;;;;;;7.47;2.63;;;;;;;;;;4990598;28;20247;-71
2022/09/15 04:11:46;;;;;;;5.80;2.60;;;;;;;;;;4984682;28;20200;-70
2022/09/15 04:14:13;;;;;;;8.20;2.50;;;;;;;;;;5001965;28;20730;-70
2022/09/15 04:16:40;;;;;;;7.73;3.13;;;;;;;;;;4985046;28;20196;-74
2022/09/15 04:19:07;;;;;;;8.70;2.60;;;;;;;;;;5001554;28;20282;-73
2022/09/15 04:21:33;;;;;;;6.23;2.30;;;;;;;;;;5006759;28;20188;-73
2022/09/15 04:24:00;;;;;;;7.00;2.40;;;;;;;;;;5006244;28;20188;-73
2022/09/15 04:26:30;;;;;;;5.77;2.27;;;;;;;;;;4999032;28;20602;-72
2022/09/15 04:28:57;;;;;;;5.27;1.90;;;;;;;;;;5008909;28;20533;-69
2022/09/15 04:31:29;;;;;;;8.27;2.10;;;;;;;;;;5003345;28;20199;-71
2022/09/15 04:33:56;;;;;;;6.13;1.73;;;;;;;;;;5004118;28;20215;-71
2022/09/15 04:36:24;;;;;;;6.30;2.10;;;;;;;;;;4984420;28;20191;-70
2022/09/15 04:38:51;;;;;;;7.73;1.83;;;;;;;;;;4989497;28;20197;-70
2022/09/15 04:41:18;;;;;;;7.40;1.80;;;;;;;;;;4997652;28;20257;-71
2022/09/15 04:43:45;;;;;;;10.37;2.53;;;;;;;;;;4992424;28;20220;-70
2022/09/15 04:46:12;;;;;;;5.60;1.90;;;;;;;;;;5010506;28;20687;-71
2022/09/15 04:48:39;;;;;;;5.93;2.10;;;;;;;;;;4993074;28;20599;-71
2022/09/15 04:51:07;;;;;;;5.73;1.90;;;;;;;;;;5010591;28;20198;-71
2022/09/15 04:53:34;;;;;;;6.33;1.90;;;;;;;;;;5010514;28;20231;-71
2022/09/15 04:56:02;;;;;;;4.70;1.80;;;;;;;;;;5010333;28;20279;-72
2022/09/15 04:58:29;;;;;;;6.67;1.87;;;;;;;;;;4985092;28;20236;-71
2022/09/15 05:00:55;;;;;;;4.40;1.90;;;;;;;;;;5004984;28;20210;-70
2022/09/15 05:03:22;;;;;;;7.50;1.90;;;;;;;;;;4992219;28;20192;-71
2022/09/15 05:05:50;;;;;;;4.37;2.17;;;;;;;;;;4988774;28;20211;-70
2022/09/15 05:08:17;;;;;;;4.00;1.73;;;;;;;;;;4992895;28;20201;-70
2022/09/15 05:10:44;;;;;;;5.00;1.77;;;;;;;;;;5010535;28;20549;-71
2022/09/15 05:13:11;;;;;;;5.93;1.97;;;;;;;;;;5000386;28;20308;-71
2022/09/15 05:15:38;;;;;;;5.03;1.80;;;;;;;;;;5000953;28;20193;-72
2022/09/15 05:18:05;;;;;;;3.83;1.63;;;;;;;;;;4997671;28;20239;-72
2022/09/15 05:20:33;;;;;;;4.33;1.97;;;;;;;;;;4981948;28;20660;-74
2022/09/15 05:23:00;;;;;;;6.50;1.90;;;;;;;;;;5002245;28;20193;-70
2022/09/15 05:25:27;;;;;;;5.20;1.87;;;;;;;;;;5000037;28;20195;-71
2022/09/15 05:27:54;;;;;;;4.97;2.10;;;;;;;;;;5004135;28;20299;-73
2022/09/15 05:30:22;;;;;;;5.83;2.20;;;;;;;;;;4991457;28;20270;-74
2022/09/15 05:33:03;;;;;;;6.43;1.63;;;;;;;;;;4982063;28;20200;-74
2022/09/15 05:35:30;;;;;;;6.33;1.90;;;;;;;;;;5010098;28;20199;-73
2022/09/15 05:37:57;;;;;;;4.63;1.70;;;;;;;;;;5009717;28;20246;-74
2022/09/15 05:40:24;;;;;;;3.23;1.50;;;;;;;;;;4992878;28;20199;-73
2022/09/15 05:42:51;;;;;;;4.30;1.60;;;;;;;;;;5009096;28;20246;-74
2022/09/15 05:45:17;;;;;;;4.43;1.47;;;;;;;;;;5007423;28;20196;-73
2022/09/15 05:47:44;;;;;;;5.43;1.50;;;;;;;;;;4994171;28;20287;-73
2022/09/15 05:50:11;;;;;;;4.97;1.50;;;;;;;;;;4990855;28;20195;-73
2022/09/15 05:52:38;;;;;;;5.87;1.50;;;;;;;;;;5000347;28;20254;-74
2022/09/15 05:55:05;;;;;;;5.63;1.80;;;;;;;;;;4999510;28;20203;-73
2022/09/15 05:57:32;;;;;;;3.53;1.83;;;;;;;;;;4997298;28;21122;-74
2022/09/15 05:59:59;;;;;;;16.10;3.27;;;;;;;;;;5001374;28;20194;-73
2022/09/15 06:02:26;;;;;;;132.93;18.40;;;;;;;;;;4986189;28;20277;-73
2022/09/15 06:04:52;;;;;;;9.07;2.40;;;;;;;;;;5001276;28;20227;-72
2022/09/15 06:07:19;;;;;;;40.70;7.00;;;;;;;;;;5001716;28;20219;-74
2022/09/15 06:09:46;;;;;;;7.07;2.20;;;;;;;;;;4984842;28;20516;-73
2022/09/15 06:12:13;;;;;;;7.53;1.60;;;;;;;;;;4984297;28;20223;-72
2022/09/15 06:14:42;;;;;;;4.57;1.37;;;;;;;;;;5002736;28;20219;-73
2022/09/15 06:17:08;;;;;;;3.47;1.50;;;;;;;;;;5001168;28;20200;-72
2022/09/15 06:19:35;;;;;;;4.70;1.50;;;;;;;;;;5002157;28;20729;-72
2022/09/15 06:22:03;;;;;;;3.27;1.40;;;;;;;;;;5001672;28;20662;-72
2022/09/15 06:24:29;;;;;;;2.33;1.20;;;;;;;;;;5002739;28;20214;-73
2022/09/15 06:26:56;;;;;;;4.00;1.50;;;;;;;;;;5000874;28;20556;-72
2022/09/15 06:29:24;;;;;;;5.47;1.80;;;;;;;;;;4982825;28;20557;-72
2022/09/15 06:31:50;;;;;;;4.17;1.30;;;;;;;;;;4984138;28;20216;-71
2022/09/15 06:34:17;;;;;;;3.57;1.30;;;;;;;;;;4968574;28;20207;-71
2022/09/15 06:36:44;;;;;;;3.20;1.50;;;;;;;;;;4984249;28;20199;-72
2022/09/15 06:39:11;;;;;;;4.50;1.40;;;;;;;;;;5002654;28;20203;-72
2022/09/15 06:41:37;;;;;;;5.80;1.30;;;;;;;;;;5000512;28;20199;-73
2022/09/15 06:44:27;;;;;;;2.77;1.20;;;;;;;;;;5002003;28;20202;-71
2022/09/15 06:46:53;;;;;;;5.07;1.60;;;;;;;;;;5001543;28;20223;-71
2022/09/15 06:49:20;;;;;;;3.47;1.40;;;;;;;;;;5001798;28;20271;-72
2022/09/15 06:51:47;;;;;;;4.90;1.30;;;;;;;;;;5001842;28;20196;-72
2022/09/15 06:54:15;;;;;;;6.77;1.43;;;;;;;;;;4981886;28;20204;-71
2022/09/15 06:56:41;;;;;;;3.60;1.67;;;;;;;;;;4982052;28;20208;-70
2022/09/15 06:59:12;;;;;;;2.70;1.20;;;;;;;;;;4980216;28;20240;-72
2022/09/15 07:01:38;;;;;;;2.47;0.90;;;;;;;;;;4978643;28;20234;-71
2022/09/15 07:04:07;;;;;;;3.13;1.30;;;;;;;;;;4964243;28;20690;-71
2022/09/15 07:06:34;;;;;;;2.43;1.17;;;;;;;;;;4975152;28;20840;-71
2022/09/15 07:09:01;;;;;;;3.10;1.10;;;;;;;;;;4965891;28;20328;-73
2022/09/15 07:11:28;;;;;;;2.33;1.10;;;;;;;;;;4977009;28;20205;-72
2022/09/15 07:13:55;;;;;;;4.47;1.40;;;;;;;;;;4975746;28;20189;-70
2022/09/15 07:16:24;;;;;;;2.77;1.20;;;;;;;;;;4975455;28;20196;-72
2022/09/15 07:18:51;;;;;;;2.43;0.90;;;;;;;;;;4992487;28;20252;-72
2022/09/15 07:21:18;;;;;;;2.93;1.10;;;;;;;;;;4975153;28;20333;-72
2022/09/15 07:23:45;;;;;;;3.20;0.97;;;;;;;;;;4975559;28;20198;-72
2022/09/15 07:26:17;;;;;;;4.53;1.10;;;;;;;;;;4992893;28;20208;-71
2022/09/15 07:28:48;;;;;;;1.90;1.07;;;;;;;;;;4989695;28;20189;-72
2022/09/15 07:31:16;;;;;;;3.30;1.20;;;;;;;;;;4994370;28;20574;-71
2022/09/15 07:33:42;;;;;;;3.47;1.00;;;;;;;;;;4976825;28;20188;-71
2022/09/15 07:36:10;;;;;;;2.93;1.03;;;;;;;;;;4991965;28;20248;-71
2022/09/15 07:38:38;;;;;;;3.50;1.13;;;;;;;;;;4973891;28;20284;-72
2022/09/15 07:41:05;;;;;;;3.10;0.80;;;;;;;;;;4975687;28;20201;-72
2022/09/15 07:43:32;;;;;;;1.97;0.90;;;;;;;;;;4975101;28;20197;-73
2022/09/15 07:45:59;;;;;;;16.30;5.83;;;;;;;;;;4974918;28;20715;-63
2022/09/15 07:48:26;;;;;;;55.20;9.40;;;;;;;;;;4992098;28;20224;-62
2022/09/15 07:50:53;;;;;;;84.13;11.73;;;;;;;;;;4991853;28;20200;-60
2022/09/15 07:53:20;;;;;;;12.73;2.73;;;;;;;;;;4975658;28;20220;-60
2022/09/15 07:55:53;;;;;;;2.93;0.93;;;;;;;;;;4980462;28;20193;-61
2022/09/15 07:58:20;;;;;;;3.13;1.00;;;;;;;;;;4982271;28;20200;-61
2022/09/15 08:00:47;;;;;;;2.90;0.90;;;;;;;;;;4973124;28;20304;-61
2022/09/15 08:03:14;;;;;;;1.77;0.70;;;;;;;;;;4981764;28;20225;-61
2022/09/15 08:05:41;;;;;;;6.70;1.07;;;;;;;;;;4981291;28;20196;-61
2022/09/15 08:08:11;;;;;;;3.40;0.80;;;;;;;;;;4974926;28;20225;-61
2022/09/15 08:10:41;;;;;;;1.73;0.80;;;;;;;;;;4978127;28;20207;-61
2022/09/15 08:13:08;;;;;;;76.00;9.60;;;;;;;;;;4981611;28;20283;-61
2022/09/15 08:15:36;;;;;;;15.60;2.67;;;;;;;;;;4981518;28;20324;-60
2022/09/15 08:18:03;;;;;;;6.47;1.20;;;;;;;;;;4981293;28;20243;-59
2022/09/15 08:20:30;;;;;;;2.00;0.80;;;;;;;;;;4978860;28;20871;-60
2022/09/15 08:22:57;;;;;;;2.00;0.87;;;;;;;;;;4981460;28;20197;-60
2022/09/15 08:25:24;;;;;;;2.33;1.00;;;;;;;;;;4981747;28;20193;-71
2022/09/15 08:28:09;;;;;;;2.67;0.77;;;;;;;;;;4981235;28;20247;-71
2022/09/15 08:30:37;;;;;;;3.43;0.90;;;;;;;;;;4982786;28;20193;-71
2022/09/15 08:33:04;;;;;;;3.00;0.70;;;;;;;;;;4978300;28;20237;-71
2022/09/15 08:35:32;;;;;;;3.07;0.70;;;;;;;;;;4979327;28;20203;-72
2022/09/15 08:37:59;;;;;;;4.30;0.70;;;;;;;;;;4983106;28;20664;-71
2022/09/15 08:40:27;;;;;;;1.40;0.80;;;;;;;;;;4981490;28;20216;-71
2022/09/15 08:42:55;;;;;;;1.47;0.60;;;;;;;;;;4978893;28;20900;-72
2022/09/15 08:45:23;;;;;;;2.83;0.50;;;;;;;;;;4957005;28;20195;-69
2022/09/15 08:47:54;;;;;;;2.20;0.60;;;;;;;;;;4980406;28;20241;-70
2022/09/15 08:50:21;;;;;;;3.00;0.70;;;;;;;;;;4965809;28;20224;-69
2022/09/15 08:52:59;;;;;;;2.13;0.80;;;;;;;;;;4974714;28;20287;-70
2022/09/15 08:55:35;;;;;;;2.27;0.80;;;;;;;;;;4977948;28;20200;-69
2022/09/15 08:58:03;;;;;;;2.00;0.70;;;;;;;;;;4984990;28;20231;-69
2022/09/15 09:00:30;;;;;;;1.73;0.87;;;;;;;;;;5004523;28;20192;-68
2022/09/15 09:03:01;;;;;;;2.50;0.90;;;;;;;;;;5001072;28;20855;-68
2022/09/15 09:05:44;;;;;;;2.43;0.83;;;;;;;;;;4986225;28;20497;-71
2022/09/15 09:08:30;;;;;;;2.03;0.90;;;;;;;;;;4970800;28;20254;-68
2022/09/15 09:11:09;;;;;;;1.37;0.87;;;;;;;;;;4985706;28;21167;-68
2022/09/15 09:13:36;;;;;;;2.00;1.00;;;;;;;;;;4985765;28;20602;-69
2022/09/15 09:16:10;;;;;;;0.80;0.70;;;;;;;;;;5004416;28;20235;-69
2022/09/15 09:18:55;;;;;;;4.20;0.90;;;;;;;;;;4986432;28;20228;-71
2022/09/15 09:21:25;;;;;;;2.73;1.10;;;;;;;;;;5004130;28;20219;-69
2022/09/15 09:23:54;;;;;;;5.30;1.10;;;;;;;;;;4986543;28;20192;-70
2022/09/15 09:26:22;;;;;;;3.57;1.10;;;;;;;;;;4986854;28;20203;-72
2022/09/15 09:28:52;;;;;;;3.03;1.03;;;;;;;;;;5003614;28;20184;-69
2022/09/15 09:31:20;;;;;;;2.57;1.10;;;;;;;;;;5003892;28;20208;-69
2022/09/15 09:33:51;;;;;;;1.87;1.00;;;;;;;;;;4985951;28;20207;-68
2022/09/15 09:36:18;;;;;;;1.63;0.87;;;;;;;;;;4986002;28;20192;-69
2022/09/15 09:38:45;;;;;;;3.07;0.97;;;;;;;;;;5002523;28;20180;-69
2022/09/15 09:41:21;;;;;;;4.60;1.20;;;;;;;;;;4986797;28;20718;-69
2022/09/15 09:43:48;;;;;;;1.73;1.00;;;;;;;;;;4983582;28;20192;-69
2022/09/15 09:46:16;;;;;;;3.87;0.90;;;;;;;;;;4985661;28;21059;-68
2022/09/15 09:48:45;;;;;;;4.50;1.00;;;;;;;;;;5001760;28;20216;-69
2022/09/15 09:51:36;;;;;;;2.93;0.80;;;;;;;;;;4985247;28;20258;-68
2022/09/15 09:54:10;;;;;;;1.77;0.73;;;;;;;;;;5000941;28;20208;-69
2022/09/15 09:56:37;;;;;;;2.20;0.80;;;;;;;;;;4984840;28;20249;-68
2022/09/15 09:59:05;;;;;;;2.93;0.80;;;;;;;;;;4984524;28;20820;-69
2022/09/15 10:01:31;;;;;;;1.93;0.80;;;;;;;;;;4985453;28;20246;-69
2022/09/15 10:04:28;;;;;;;2.47;0.73;;;;;;;;;;4984806;28;20995;-68
2022/09/15 10:06:55;;;;;;;3.47;0.90;;;;;;;;;;4989389;28;20224;-69
2022/09/15 10:09:22;;;;;;;2.10;0.70;;;;;;;;;;4984743;28;20266;-68
2022/09/15 10:11:49;;;;;;;1.93;0.70;;;;;;;;;;5000653;28;20200;-68
2022/09/15 10:14:36;;;;;;;1.50;0.60;;;;;;;;;;5002894;28;20199;-67
2022/09/15 10:17:08;;;;;;;2.07;0.70;;;;;;;;;;4982748;28;20320;-69
2022/09/15 10:19:42;;;;;;;1.47;0.80;;;;;;;;;;5000434;28;20240;-69
2022/09/15 10:22:13;;;;;;;1.50;0.50;;;;;;;;;;5000483;28;20195;-69
2022/09/15 10:24:40;;;;;;;2.50;0.53;;;;;;;;;;4985088;28;20204;-68
2022/09/15 10:27:07;;;;;;;4.47;0.90;;;;;;;;;;4985149;28;20725;-68
2022/09/15 10:29:40;;;;;;;1.00;0.57;;;;;;;;;;4999489;28;20192;-69
2022/09/15 10:32:15;;;;;;;1.37;0.60;;;;;;;;;;5001446;28;20721;-70
2022/09/15 10:34:47;;;;;;;2.07;0.83;;;;;;;;;;5004276;28;20259;-67
2022/09/15 10:37:26;;;;;;;1.60;0.70;;;;;;;;;;5005592;28;20287;-67
2022/09/15 10:39:53;;;;;;;1.90;0.40;;;;;;;;;;5006288;28;20242;-67
2022/09/15 10:42:30;;;;;;;3.27;0.70;;;;;;;;;;4972012;28;20544;-68
2022/09/15 10:45:10;;;;;;;2.27;0.70;;;;;;;;;;4988630;28;20207;-69
2022/09/15 10:47:40;;;;;;;2.30;0.60;;;;;;;;;;4988173;28;20255;-69
2022/09/15 10:50:26;;;;;;;6.27;0.60;;;;;;;;;;4988434;28;20261;-68
2022/09/15 10:53:11;;;;;;;2.57;0.60;;;;;;;;;;5004172;28;20192;-69
2022/09/15 10:55:39;;;;;;;2.03;0.50;;;;;;;;;;5006555;28;20196;-69
2022/09/15 10:58:24;;;;;;;2.40;0.63;;;;;;;;;;5004980;28;20188;-67
2022/09/15 11:01:05;;;;;;;1.10;0.50;;;;;;;;;;4972195;28;20682;-67
2022/09/15 11:03:37;;;;;;;1.73;0.60;;;;;;;;;;4988331;28;20271;-69
2022/09/15 11:06:12;;;;;;;2.50;0.50;;;;;;;;;;5006881;28;20211;-69
2022/09/15 11:08:39;;;;;;;4.20;0.63;;;;;;;;;;5005745;28;20248;-70
2022/09/15 11:11:12;;;;;;;1.90;0.80;;;;;;;;;;5005880;28;20631;-70
2022/09/15 11:13:38;;;;;;;1.17;0.53;;;;;;;;;;5006925;28;20195;-70
2022/09/15 11:16:05;;;;;;;1.43;0.80;;;;;;;;;;5006502;28;20192;-68
2022/09/15 11:18:44;;;;;;;1.20;0.50;;;;;;;;;;5006358;28;20547;-68
2022/09/15 11:21:23;;;;;;;1.87;0.53;;;;;;;;;;5006631;28;20295;-69
2022/09/15 11:23:52;;;;;;;1.30;0.60;;;;;;;;;;5004009;28;20239;-69
2022/09/15 11:26:38;;;;;;;3.13;0.70;;;;;;;;;;4972449;28;20900;-68
2022/09/15 11:29:30;;;;;;;1.50;0.50;;;;;;;;;;5005475;28;20665;-68
2022/09/15 11:31:59;;;;;;;2.07;0.60;;;;;;;;;;4970897;28;20564;-68
2022/09/15 11:34:27;;;;;;;1.63;0.50;;;;;;;;;;4988420;28;20188;-69
2022/09/15 11:37:20;;;;;;;2.37;0.50;;;;;;;;;;4970734;28;20200;-69
2022/09/15 11:39:50;;;;;;;3.97;0.60;;;;;;;;;;5002130;28;20559;-68
2022/09/15 11:42:19;;;;;;;2.50;0.70;;;;;;;;;;4985902;28;20267;-67
2022/09/15 11:44:45;;;;;;;3.00;0.50;;;;;;;;;;4986182;28;20196;-67
2022/09/15 11:47:32;;;;;;;1.90;0.50;;;;;;;;;;4987474;28;20239;-67
2022/09/15 11:50:04;;;;;;;1.30;0.40;;;;;;;;;;5004294;28;20215;-67
2022/09/15 11:52:34;;;;;;;2.10;0.77;;;;;;;;;;4986976;28;20184;-67
2022/09/15 11:55:04;;;;;;;1.43;0.60;;;;;;;;;;5003682;28;20752;-67
2022/09/15 11:57:34;;;;;;;3.60;0.77;;;;;;;;;;5004727;28;20199;-69
2022/09/15 12:00:04;;;;;;;4.13;0.50;;;;;;;;;;5004507;28;20195;-69
2022/09/15 12:02:39;;;;;;;2.37;0.60;;;;;;;;;;4986462;28;20228;-70
2022/09/15 12:05:24;;;;;;;1.40;0.30;;;;;;;;;;4986896;28;20199;-68
2022/09/15 12:07:54;;;;;;;1.30;0.50;;;;;;;;;;5003976;28;20310;-68
2022/09/15 12:10:27;;;;;;;2.17;0.77;;;;;;;;;;5003553;28;20262;-69
2022/09/15 12:12:54;;;;;;;3.03;0.63;;;;;;;;;;4986557;28;20193;-68
2022/09/15 12:15:26;;;;;;;3.13;0.50;;;;;;;;;;4970927;28;20200;-69
2022/09/15 12:17:56;;;;;;;2.83;0.70;;;;;;;;;;4985461;28;20232;-68
2022/09/15 12:20:55;;;;;;;4.57;0.90;;;;;;;;;;4970779;28;20208;-68
2022/09/15 12:23:31;;;;;;;5.97;0.73;;;;;;;;;;4981873;28;20212;-67
2022/09/15 12:26:04;;;;;;;1.63;0.60;;;;;;;;;;5004084;28;20195;-67
2022/09/15 12:28:34;;;;;;;3.67;0.90;;;;;;;;;;5003614;28;20592;-67
2022/09/15 12:31:13;;;;;;;4.53;0.80;;;;;;;;;;5004302;28;20208;-68
2022/09/15 12:33:53;;;;;;;2.20;0.60;;;;;;;;;;4985288;28;20766;-67
2022/09/15 12:36:30;;;;;;;3.47;0.70;;;;;;;;;;5003327;28;20208;-68
2022/09/15 12:38:57;;;;;;;2.33;0.87;;;;;;;;;;4986661;28;20667;-68
2022/09/15 12:41:24;;;;;;;2.67;0.73;;;;;;;;;;4986485;28;20194;-67
2022/09/15 12:43:52;;;;;;;3.30;0.90;;;;;;;;;;5004028;28;20204;-69
2022/09/15 12:46:18;;;;;;;3.30;0.80;;;;;;;;;;4986713;28;20193;-70
2022/09/15 12:48:45;;;;;;;2.30;0.70;;;;;;;;;;5003460;28;20227;-69
2022/09/15 12:51:20;;;;;;;3.57;0.70;;;;;;;;;;5003703;28;20750;-69
2022/09/15 12:53:51;;;;;;;2.17;0.70;;;;;;;;;;4970713;28;20223;-69
2022/09/15 12:56:22;;;;;;;2.00;0.60;;;;;;;;;;4985799;28;20231;-69
2022/09/15 12:58:49;;;;;;;3.13;0.80;;;;;;;;;;5003642;28;20291;-68
2022/09/15 13:01:22;;;;;;;4.80;0.70;;;;;;;;;;5004121;28;20212;-68
2022/09/15 13:03:49;;;;;;;3.40;0.73;;;;;;;;;;4969468;28;20279;-66
2022/09/15 13:06:22;;;;;;;3.00;0.80;;;;;;;;;;4976590;28;20197;-68
2022/09/15 13:09:01;;;;;;;2.60;0.80;;;;;;;;;;4976367;28;20298;-68
2022/09/15 13:11:37;;;;;;;1.43;0.57;;;;;;;;;;4970963;28;20291;-70
2022/09/15 13:14:07;;;;;;;2.63;0.83;;;;;;;;;;4971927;28;20205;-69
2022/09/15 13:16:42;;;;;;;2.20;0.70;;;;;;;;;;4970572;28;20983;-68
2022/09/15 13:19:12;;;;;;;1.40;0.60;;;;;;;;;;4972218;28;20259;-69
2022/09/15 13:21:40;;;;;;;2.17;0.63;;;;;;;;;;4963532;28;20189;-69
2022/09/15 13:24:08;;;;;;;1.53;0.60;;;;;;;;;;4975679;28;20216;-67
2022/09/15 13:26:36;;;;;;;3.00;0.70;;;;;;;;;;4982264;28;20189;-68
2022/09/15 13:29:03;;;;;;;3.07;0.60;;;;;;;;;;4981878;28;20221;-69
2022/09/15 13:31:40;;;;;;;2.00;0.60;;;;;;;;;;4981153;28;20204;-68
2022/09/15 13:34:21;;;;;;;2.77;0.50;;;;;;;;;;4982989;28;20244;-68
2022/09/15 13:37:22;;;;;;;4.23;0.60;;;;;;;;;;4966877;28;20184;-69
2022/09/15 13:40:21;;;;;;;2.07;0.70;;;;;;;;;;4982911;28;20192;-69
2022/09/15 13:42:48;;;;;;;0.57;0.40;;;;;;;;;;4977262;28;20211;-69
2022/09/15 13:45:21;;;;;;;4.50;0.80;;;;;;;;;;4970680;28;20190;-70
2022/09/15 13:48:06;;;;;;;4.93;1.17;;;;;;;;;;4969792;28;21040;-68
2022/09/15 13:50:33;;;;;;;3.37;0.70;;;;;;;;;;4977444;28;20247;-70
2022/09/15 13:53:23;;;;;;;2.23;0.70;;;;;;;;;;4970316;28;20232;-69
2022/09/15 13:55:50;;;;;;;1.77;0.80;;;;;;;;;;4968938;28;20273;-69
2022/09/15 13:58:18;;;;;;;3.47;0.90;;;;;;;;;;4971674;28;20241;-69
2022/09/15 14:01:05;;;;;;;2.33;0.60;;;;;;;;;;4979451;28;20268;-69
2022/09/15 14:03:35;;;;;;;4.20;0.63;;;;;;;;;;4981852;28;20229;-68
2022/09/15 14:06:09;;;;;;;2.90;0.87;;;;;;;;;;4982745;28;20759;-68
2022/09/15 14:08:37;;;;;;;2.30;0.70;;;;;;;;;;4961896;28;20217;-69
2022/09/15 14:11:07;;;;;;;2.43;0.70;;;;;;;;;;4960787;28;20271;-70
2022/09/15 14:13:34;;;;;;;2.20;0.80;;;;;;;;;;4965310;28;20181;-71
2022/09/15 14:16:02;;;;;;;2.63;0.80;;;;;;;;;;4983901;28;20189;-70
2022/09/15 14:18:29;;;;;;;1.13;0.60;;;;;;;;;;4962538;28;20865;-70
2022/09/15 14:20:57;;;;;;;3.03;0.63;;;;;;;;;;4983394;28;20283;-70
2022/09/15 14:23:24;;;;;;;3.23;0.60;;;;;;;;;;4961153;28;20211;-71
2022/09/15 14:25:50;;;;;;;4.00;0.60;;;;;;;;;;4983142;28;20193;-69
2022/09/15 14:28:18;;;;;;;2.20;0.60;;;;;;;;;;4963502;28;20299;-69
2022/09/15 14:30:47;;;;;;;3.60;0.70;;;;;;;;;;4964154;28;20193;-70
2022/09/15 14:33:14;;;;;;;2.17;0.77;;;;;;;;;;4963456;28;20252;-68
2022/09/15 14:35:41;;;;;;;4.73;0.87;;;;;;;;;;4963302;28;20530;-69
2022/09/15 14:38:18;;;;;;;2.97;0.80;;;;;;;;;;4965714;28;20225;-68
2022/09/15 14:40:48;;;;;;;1.87;0.70;;;;;;;;;;4964931;28;20583;-68
2022/09/15 14:43:31;;;;;;;3.20;1.00;;;;;;;;;;4977606;28;20210;-70
2022/09/15 14:46:10;;;;;;;1.70;0.80;;;;;;;;;;4981719;28;20204;-69
2022/09/15 14:48:37;;;;;;;3.87;1.27;;;;;;;;;;4979646;28;20224;-70
2022/09/15 14:51:08;;;;;;;1.97;0.80;;;;;;;;;;4962897;28;20201;-69
2022/09/15 14:53:34;;;;;;;3.20;0.90;;;;;;;;;;4962983;28;20205;-69
2022/09/15 14:56:10;;;;;;;2.43;0.97;;;;;;;;;;4962621;28;20196;-67
2022/09/15 14:58:50;;;;;;;2.77;1.00;;;;;;;;;;4960193;28;20633;-72
2022/09/15 15:01:55;;;;;;;3.93;0.87;;;;;;;;;;4981529;28;20236;-68
2022/09/15 15:04:27;;;;;;;4.67;1.10;;;;;;;;;;4979482;28;20193;-70
2022/09/15 15:06:56;;;;;;;2.40;0.80;;;;;;;;;;4965087;28;20197;-70